sensor_id;sensor_type;location;lat;lon;timestamp;pressure;altitude;pressure_sealevel;temperature;humidity
78892;BME280;68368;51.728;5.248;2023-06-04T00:00:46;102163.95;;;12.86;58.07
78892;BME280;68368;51.728;5.248;2023-06-04T00:02:50;102167.15;;;12.84;58.14
78892;BME280;68368;51.728;5.248;2023-06-04T00:04:53;102167.33;;;12.81;58.01
78892;BME280;68368;51.728;5.248;2023-06-04T00:06:57;102166.95;;;12.75;58.18
78892;BME280;68368;51.728;5.248;2023-06-04T00:09:01;102170.35;;;12.75;58.41
78892;BME280;68368;51.728;5.248;2023-06-04T00:11:04;102168.73;;;12.72;58.56
78892;BME280;68368;51.728;5.248;2023-06-04T00:13:08;102166.58;;;12.68;58.41
78892;BME280;68368;51.728;5.248;2023-06-04T00:15:12;102165.50;;;12.65;58.58
78892;BME280;68368;51.728;5.248;2023-06-04T00:17:16;102165.52;;;12.64;58.78
78892;BME280;68368;51.728;5.248;2023-06-04T00:19:19;102165.85;;;12.60;58.88
78892;BME280;68368;51.728;5.248;2023-06-04T00:21:23;102160.67;;;12.59;58.88
78892;BME280;68368;51.728;5.248;2023-06-04T00:23:26;102162.62;;;12.56;59.09
78892;BME280;68368;51.728;5.248;2023-06-04T00:25:30;102156.55;;;12.53;59.03
78892;BME280;68368;51.728;5.248;2023-06-04T00:27:33;102152.47;;;12.51;59.01
78892;BME280;68368;51.728;5.248;2023-06-04T00:29:37;102156.02;;;12.51;59.11
78892;BME280;68368;51.728;5.248;2023-06-04T00:31:41;102155.85;;;12.49;59.10
78892;BME280;68368;51.728;5.248;2023-06-04T00:33:45;102157.79;;;12.46;59.09
78892;BME280;68368;51.728;5.248;2023-06-04T00:35:48;102160.09;;;12.43;59.46
78892;BME280;68368;51.728;5.248;2023-06-04T00:37:58;102162.58;;;12.40;59.61
78892;BME280;68368;51.728;5.248;2023-06-04T00:40:06;102158.13;;;12.39;59.51
78892;BME280;68368;51.728;5.248;2023-06-04T00:42:10;102160.98;;;12.37;59.77
78892;BME280;68368;51.728;5.248;2023-06-04T00:44:15;102159.00;;;12.33;60.13
78892;BME280;68368;51.728;5.248;2023-06-04T00:46:20;102161.83;;;12.33;59.92
78892;BME280;68368;51.728;5.248;2023-06-04T00:48:26;102161.65;;;12.31;60.26
78892;BME280;68368;51.728;5.248;2023-06-04T00:50:29;102164.30;;;12.26;60.28
78892;BME280;68368;51.728;5.248;2023-06-04T00:52:33;102167.14;;;12.23;60.71
78892;BME280;68368;51.728;5.248;2023-06-04T00:54:38;102168.02;;;12.22;60.38
78892;BME280;68368;51.728;5.248;2023-06-04T00:56:46;102168.02;;;12.21;60.42
78892;BME280;68368;51.728;5.248;2023-06-04T00:58:52;102165.16;;;12.17;60.30
78892;BME280;68368;51.728;5.248;2023-06-04T01:00:57;102162.64;;;12.14;60.72
78892;BME280;68368;51.728;5.248;2023-06-04T01:03:00;102159.23;;;12.12;60.49
78892;BME280;68368;51.728;5.248;2023-06-04T01:05:11;102157.27;;;12.07;60.54
78892;BME280;68368;51.728;5.248;2023-06-04T01:07:16;102161.35;;;12.03;60.68
78892;BME280;68368;51.728;5.248;2023-06-04T01:09:22;102164.71;;;12.00;60.89
78892;BME280;68368;51.728;5.248;2023-06-04T01:11:37;102164.70;;;11.97;60.95
78892;BME280;68368;51.728;5.248;2023-06-04T01:13:43;102161.66;;;11.94;61.26
78892;BME280;68368;51.728;5.248;2023-06-04T01:15:46;102163.79;;;11.93;61.25
78892;BME280;68368;51.728;5.248;2023-06-04T01:17:53;102163.42;;;11.91;61.17
78892;BME280;68368;51.728;5.248;2023-06-04T01:22:38;102168.15;;;11.84;61.64
78892;BME280;68368;51.728;5.248;2023-06-04T01:24:43;102164.23;;;11.82;61.56
78892;BME280;68368;51.728;5.248;2023-06-04T01:26:53;102164.05;;;11.80;61.74
78892;BME280;68368;51.728;5.248;2023-06-04T01:29:00;102164.21;;;11.78;61.76
78892;BME280;68368;51.728;5.248;2023-06-04T01:31:05;102167.21;;;11.76;61.81
78892;BME280;68368;51.728;5.248;2023-06-04T01:33:08;102165.05;;;11.73;61.78
78892;BME280;68368;51.728;5.248;2023-06-04T01:35:13;102163.26;;;11.69;61.75
78892;BME280;68368;51.728;5.248;2023-06-04T01:37:17;102161.09;;;11.66;61.97
78892;BME280;68368;51.728;5.248;2023-06-04T01:39:21;102165.88;;;11.64;61.91
78892;BME280;68368;51.728;5.248;2023-06-04T01:41:24;102162.30;;;11.60;61.98
78892;BME280;68368;51.728;5.248;2023-06-04T01:43:29;102164.59;;;11.56;62.24
78892;BME280;68368;51.728;5.248;2023-06-04T01:45:34;102163.52;;;11.55;62.33
78892;BME280;68368;51.728;5.248;2023-06-04T01:47:38;102161.91;;;11.54;62.24
78892;BME280;68368;51.728;5.248;2023-06-04T01:49:42;102156.20;;;11.52;62.61
78892;BME280;68368;51.728;5.248;2023-06-04T01:51:45;102154.94;;;11.49;62.67
78892;BME280;68368;51.728;5.248;2023-06-04T01:53:49;102157.05;;;11.47;62.63
78892;BME280;68368;51.728;5.248;2023-06-04T01:55:53;102154.73;;;11.44;62.82
78892;BME280;68368;51.728;5.248;2023-06-04T01:57:56;102155.93;;;11.42;62.61
78892;BME280;68368;51.728;5.248;2023-06-04T01:59:59;102163.94;;;11.40;62.74
78892;BME280;68368;51.728;5.248;2023-06-04T02:02:03;102166.56;;;11.37;62.70
78892;BME280;68368;51.728;5.248;2023-06-04T02:04:06;102162.27;;;11.33;62.42
78892;BME280;68368;51.728;5.248;2023-06-04T02:06:09;102157.80;;;11.29;62.80
78892;BME280;68368;51.728;5.248;2023-06-04T02:08:14;102155.48;;;11.27;63.18
78892;BME280;68368;51.728;5.248;2023-06-04T02:10:19;102158.85;;;11.26;63.04
78892;BME280;68368;51.728;5.248;2023-06-04T02:12:23;102159.35;;;11.22;62.99
78892;BME280;68368;51.728;5.248;2023-06-04T02:14:27;102155.77;;;11.18;63.13
78892;BME280;68368;51.728;5.248;2023-06-04T02:16:30;102162.15;;;11.17;63.17
78892;BME280;68368;51.728;5.248;2023-06-04T02:18:33;102163.02;;;11.14;63.19
78892;BME280;68368;51.728;5.248;2023-06-04T02:20:37;102167.04;;;11.09;63.08
78892;BME280;68368;51.728;5.248;2023-06-04T02:22:40;102159.20;;;11.05;63.68
78892;BME280;68368;51.728;5.248;2023-06-04T02:24:44;102163.08;;;11.03;63.56
78892;BME280;68368;51.728;5.248;2023-06-04T02:26:47;102162.52;;;11.00;63.42
78892;BME280;68368;51.728;5.248;2023-06-04T02:28:50;102160.55;;;10.98;63.32
78892;BME280;68368;51.728;5.248;2023-06-04T02:30:54;102164.10;;;10.97;63.42
78892;BME280;68368;51.728;5.248;2023-06-04T02:32:57;102163.71;;;10.94;63.13
78892;BME280;68368;51.728;5.248;2023-06-04T02:35:00;102170.78;;;10.91;63.04
78892;BME280;68368;51.728;5.248;2023-06-04T02:37:05;102170.59;;;10.88;63.03
78892;BME280;68368;51.728;5.248;2023-06-04T02:39:08;102169.13;;;10.84;63.07
78892;BME280;68368;51.728;5.248;2023-06-04T02:41:11;102169.97;;;10.80;63.42
78892;BME280;68368;51.728;5.248;2023-06-04T02:43:15;102172.06;;;10.77;63.59
78892;BME280;68368;51.728;5.248;2023-06-04T02:45:18;102170.62;;;10.75;63.76
78892;BME280;68368;51.728;5.248;2023-06-04T02:47:22;102172.38;;;10.73;64.08
78892;BME280;68368;51.728;5.248;2023-06-04T02:49:25;102169.52;;;10.70;64.09
78892;BME280;68368;51.728;5.248;2023-06-04T02:51:29;102171.45;;;10.69;63.90
78892;BME280;68368;51.728;5.248;2023-06-04T02:53:32;102171.75;;;10.65;64.47
78892;BME280;68368;51.728;5.248;2023-06-04T02:55:36;102171.55;;;10.62;64.87
78892;BME280;68368;51.728;5.248;2023-06-04T02:57:40;102170.11;;;10.60;64.85
78892;BME280;68368;51.728;5.248;2023-06-04T02:59:44;102168.65;;;10.58;65.00
78892;BME280;68368;51.728;5.248;2023-06-04T03:01:50;102169.52;;;10.54;65.28
78892;BME280;68368;51.728;5.248;2023-06-04T03:03:57;102166.45;;;10.51;65.50
78892;BME280;68368;51.728;5.248;2023-06-04T03:06:00;102166.40;;;10.47;65.53
78892;BME280;68368;51.728;5.248;2023-06-04T03:08:04;102167.42;;;10.43;65.65
78892;BME280;68368;51.728;5.248;2023-06-04T03:10:10;102164.00;;;10.38;66.09
78892;BME280;68368;51.728;5.248;2023-06-04T03:12:14;102159.02;;;10.37;66.17
78892;BME280;68368;51.728;5.248;2023-06-04T03:14:17;102162.20;;;10.35;66.36
78892;BME280;68368;51.728;5.248;2023-06-04T03:16:21;102157.55;;;10.34;66.46
78892;BME280;68368;51.728;5.248;2023-06-04T03:18:24;102159.85;;;10.32;66.68
78892;BME280;68368;51.728;5.248;2023-06-04T03:20:29;102163.02;;;10.32;66.54
78892;BME280;68368;51.728;5.248;2023-06-04T03:22:36;102160.70;;;10.30;66.56
78892;BME280;68368;51.728;5.248;2023-06-04T03:24:41;102166.54;;;10.28;66.59
78892;BME280;68368;51.728;5.248;2023-06-04T03:26:44;102164.15;;;10.25;66.60
78892;BME280;68368;51.728;5.248;2023-06-04T03:28:51;102164.13;;;10.23;66.51
78892;BME280;68368;51.728;5.248;2023-06-04T03:30:54;102163.43;;;10.24;66.62
78892;BME280;68368;51.728;5.248;2023-06-04T03:32:58;102159.02;;;10.26;66.32
78892;BME280;68368;51.728;5.248;2023-06-04T03:35:01;102161.02;;;10.27;66.62
78892;BME280;68368;51.728;5.248;2023-06-04T03:37:07;102160.15;;;10.28;66.55
78892;BME280;68368;51.728;5.248;2023-06-04T03:39:11;102161.39;;;10.29;66.41
78892;BME280;68368;51.728;5.248;2023-06-04T03:41:16;102162.66;;;10.30;66.65
78892;BME280;68368;51.728;5.248;2023-06-04T03:43:20;102163.37;;;10.45;66.43
78892;BME280;68368;51.728;5.248;2023-06-04T03:45:24;102163.73;;;10.78;65.86
78892;BME280;68368;51.728;5.248;2023-06-04T03:47:29;102166.80;;;11.00;65.28
78892;BME280;68368;51.728;5.248;2023-06-04T03:49:32;102171.23;;;11.01;65.05
78892;BME280;68368;51.728;5.248;2023-06-04T03:51:39;102170.30;;;10.96;64.70
78892;BME280;68368;51.728;5.248;2023-06-04T03:53:44;102168.48;;;10.92;64.83
78892;BME280;68368;51.728;5.248;2023-06-04T03:55:48;102166.90;;;10.93;64.68
78892;BME280;68368;51.728;5.248;2023-06-04T03:57:53;102167.41;;;11.09;64.21
78892;BME280;68368;51.728;5.248;2023-06-04T03:59:56;102164.08;;;11.60;63.52
78892;BME280;68368;51.728;5.248;2023-06-04T04:01:59;102162.67;;;12.21;62.20
78892;BME280;68368;51.728;5.248;2023-06-04T04:04:03;102161.27;;;12.82;61.06
78892;BME280;68368;51.728;5.248;2023-06-04T04:06:06;102163.11;;;13.43;59.43
78892;BME280;68368;51.728;5.248;2023-06-04T04:08:10;102159.45;;;13.99;58.35
78892;BME280;68368;51.728;5.248;2023-06-04T04:10:14;102161.19;;;14.56;56.72
78892;BME280;68368;51.728;5.248;2023-06-04T04:12:18;102161.05;;;15.07;55.24
78892;BME280;68368;51.728;5.248;2023-06-04T04:14:21;102155.09;;;15.56;54.29
78892;BME280;68368;51.728;5.248;2023-06-04T04:16:25;102165.06;;;16.13;53.06
78892;BME280;68368;51.728;5.248;2023-06-04T04:18:31;102163.92;;;16.60;51.39
78892;BME280;68368;51.728;5.248;2023-06-04T04:20:36;102167.27;;;17.02;49.96
78892;BME280;68368;51.728;5.248;2023-06-04T04:22:42;102168.73;;;17.44;49.08
78892;BME280;68368;51.728;5.248;2023-06-04T04:24:49;102166.14;;;17.89;47.84
78892;BME280;68368;51.728;5.248;2023-06-04T04:26:54;102165.14;;;18.30;46.47
78892;BME280;68368;51.728;5.248;2023-06-04T04:29:00;102168.11;;;18.68;45.43
78892;BME280;68368;51.728;5.248;2023-06-04T04:31:03;102163.45;;;19.06;44.36
78892;BME280;68368;51.728;5.248;2023-06-04T04:33:06;102163.51;;;19.33;43.03
78892;BME280;68368;51.728;5.248;2023-06-04T04:35:10;102162.33;;;19.65;42.38
78892;BME280;68368;51.728;5.248;2023-06-04T04:37:14;102159.55;;;20.01;41.28
78892;BME280;68368;51.728;5.248;2023-06-04T04:39:22;102152.91;;;20.31;40.59
78892;BME280;68368;51.728;5.248;2023-06-04T04:41:27;102155.94;;;20.57;39.90
78892;BME280;68368;51.728;5.248;2023-06-04T04:43:32;102153.10;;;20.84;39.48
78892;BME280;68368;51.728;5.248;2023-06-04T04:45:39;102153.21;;;21.36;39.04
78892;BME280;68368;51.728;5.248;2023-06-04T04:47:42;102150.95;;;21.80;37.61
78892;BME280;68368;51.728;5.248;2023-06-04T04:49:45;102151.21;;;22.08;36.60
78892;BME280;68368;51.728;5.248;2023-06-04T04:51:49;102151.23;;;22.36;36.27
78892;BME280;68368;51.728;5.248;2023-06-04T04:53:52;102154.15;;;22.63;35.90
78892;BME280;68368;51.728;5.248;2023-06-04T04:55:56;102151.23;;;23.00;35.22
78892;BME280;68368;51.728;5.248;2023-06-04T04:58:00;102146.86;;;23.28;34.62
78892;BME280;68368;51.728;5.248;2023-06-04T05:00:04;102140.52;;;23.69;34.21
78892;BME280;68368;51.728;5.248;2023-06-04T05:02:08;102143.01;;;24.03;33.18
78892;BME280;68368;51.728;5.248;2023-06-04T05:04:12;102137.89;;;24.28;32.55
78892;BME280;68368;51.728;5.248;2023-06-04T05:06:16;102144.64;;;24.54;32.27
78892;BME280;68368;51.728;5.248;2023-06-04T05:08:19;102142.73;;;24.86;31.70
78892;BME280;68368;51.728;5.248;2023-06-04T05:10:23;102143.98;;;25.05;31.58
78892;BME280;68368;51.728;5.248;2023-06-04T05:12:29;102148.61;;;25.43;31.02
78892;BME280;68368;51.728;5.248;2023-06-04T05:14:33;102149.73;;;25.63;29.98
78892;BME280;68368;51.728;5.248;2023-06-04T05:16:37;102144.96;;;25.88;29.63
78892;BME280;68368;51.728;5.248;2023-06-04T05:18:41;102148.05;;;26.03;29.00
78892;BME280;68368;51.728;5.248;2023-06-04T05:20:45;102147.90;;;26.25;28.69
78892;BME280;68368;51.728;5.248;2023-06-04T05:22:49;102147.45;;;26.30;27.86
78892;BME280;68368;51.728;5.248;2023-06-04T05:24:54;102151.16;;;26.35;28.06
78892;BME280;68368;51.728;5.248;2023-06-04T05:26:57;102155.79;;;26.54;27.84
78892;BME280;68368;51.728;5.248;2023-06-04T05:29:00;102158.45;;;26.74;27.17
78892;BME280;68368;51.728;5.248;2023-06-04T05:31:04;102159.77;;;26.76;26.89
78892;BME280;68368;51.728;5.248;2023-06-04T05:33:08;102160.30;;;26.86;26.72
78892;BME280;68368;51.728;5.248;2023-06-04T05:35:14;102161.98;;;26.98;26.22
78892;BME280;68368;51.728;5.248;2023-06-04T05:37:17;102162.92;;;27.10;26.59
78892;BME280;68368;51.728;5.248;2023-06-04T05:39:21;102164.20;;;27.10;25.46
78892;BME280;68368;51.728;5.248;2023-06-04T05:41:27;102163.49;;;26.88;25.58
78892;BME280;68368;51.728;5.248;2023-06-04T05:43:28;102166.30;;;26.77;26.23
78892;BME280;68368;51.728;5.248;2023-06-04T05:45:32;102165.67;;;26.88;26.13
78892;BME280;68368;51.728;5.248;2023-06-04T05:47:35;102162.91;;;26.92;26.06
78892;BME280;68368;51.728;5.248;2023-06-04T05:49:38;102161.83;;;27.01;25.77
78892;BME280;68368;51.728;5.248;2023-06-04T05:51:42;102159.21;;;27.02;25.82
78892;BME280;68368;51.728;5.248;2023-06-04T05:53:45;102162.08;;;27.22;25.92
78892;BME280;68368;51.728;5.248;2023-06-04T05:55:49;102163.64;;;27.59;26.06
78892;BME280;68368;51.728;5.248;2023-06-04T05:57:53;102159.97;;;28.02;25.51
78892;BME280;68368;51.728;5.248;2023-06-04T05:59:56;102158.95;;;28.58;25.28
78892;BME280;68368;51.728;5.248;2023-06-04T06:02:00;102163.73;;;28.88;24.14
78892;BME280;68368;51.728;5.248;2023-06-04T06:04:04;102165.98;;;28.87;23.97
78892;BME280;68368;51.728;5.248;2023-06-04T06:06:11;102166.24;;;29.06;23.99
78892;BME280;68368;51.728;5.248;2023-06-04T06:08:15;102165.83;;;29.21;23.83
78892;BME280;68368;51.728;5.248;2023-06-04T06:10:18;102170.48;;;29.51;23.84
78892;BME280;68368;51.728;5.248;2023-06-04T06:12:22;102165.95;;;29.72;23.27
78892;BME280;68368;51.728;5.248;2023-06-04T06:14:25;102165.41;;;29.80;22.70
78892;BME280;68368;51.728;5.248;2023-06-04T06:16:28;102171.58;;;29.68;22.88
78892;BME280;68368;51.728;5.248;2023-06-04T06:18:32;102171.55;;;29.60;22.76
78892;BME280;68368;51.728;5.248;2023-06-04T06:20:36;102172.86;;;29.65;23.12
78892;BME280;68368;51.728;5.248;2023-06-04T06:22:39;102171.86;;;29.79;22.79
78892;BME280;68368;51.728;5.248;2023-06-04T06:24:43;102176.22;;;30.13;23.22
78892;BME280;68368;51.728;5.248;2023-06-04T06:26:49;102170.90;;;30.54;22.26
78892;BME280;68368;51.728;5.248;2023-06-04T06:28:52;102175.08;;;30.57;21.74
78892;BME280;68368;51.728;5.248;2023-06-04T06:30:58;102175.45;;;30.47;21.93
78892;BME280;68368;51.728;5.248;2023-06-04T06:33:01;102180.21;;;30.50;22.03
78892;BME280;68368;51.728;5.248;2023-06-04T06:35:06;102179.77;;;30.68;22.11
78892;BME280;68368;51.728;5.248;2023-06-04T06:37:10;102176.86;;;30.83;21.91
78892;BME280;68368;51.728;5.248;2023-06-04T06:39:13;102177.48;;;30.97;21.86
78892;BME280;68368;51.728;5.248;2023-06-04T06:41:16;102179.41;;;31.03;21.21
78892;BME280;68368;51.728;5.248;2023-06-04T06:43:20;102180.64;;;31.01;21.12
78892;BME280;68368;51.728;5.248;2023-06-04T06:45:24;102183.08;;;31.02;21.50
78892;BME280;68368;51.728;5.248;2023-06-04T06:47:27;102179.05;;;31.09;21.53
78892;BME280;68368;51.728;5.248;2023-06-04T06:49:31;102183.19;;;31.33;21.53
78892;BME280;68368;51.728;5.248;2023-06-04T06:51:34;102183.52;;;31.33;20.99
78892;BME280;68368;51.728;5.248;2023-06-04T06:53:38;102181.54;;;31.15;20.98
78892;BME280;68368;51.728;5.248;2023-06-04T06:55:41;102190.14;;;31.06;20.97
78892;BME280;68368;51.728;5.248;2023-06-04T06:57:45;102190.89;;;30.96;21.29
78892;BME280;68368;51.728;5.248;2023-06-04T06:59:48;102191.85;;;30.98;21.17
78892;BME280;68368;51.728;5.248;2023-06-04T07:01:55;102190.05;;;31.05;21.60
78892;BME280;68368;51.728;5.248;2023-06-04T07:03:58;102194.16;;;31.43;21.21
78892;BME280;68368;51.728;5.248;2023-06-04T07:06:05;102190.70;;;31.54;21.22
78892;BME280;68368;51.728;5.248;2023-06-04T07:08:08;102193.09;;;31.85;21.27
78892;BME280;68368;51.728;5.248;2023-06-04T07:10:12;102190.27;;;32.07;20.86
78892;BME280;68368;51.728;5.248;2023-06-04T07:12:15;102195.73;;;32.26;20.71
78892;BME280;68368;51.728;5.248;2023-06-04T07:14:19;102194.17;;;32.20;20.43
78892;BME280;68368;51.728;5.248;2023-06-04T07:16:28;102193.51;;;32.12;20.36
78892;BME280;68368;51.728;5.248;2023-06-04T07:18:31;102194.73;;;32.04;20.44
78892;BME280;68368;51.728;5.248;2023-06-04T07:20:36;102192.52;;;32.11;20.52
78892;BME280;68368;51.728;5.248;2023-06-04T07:22:39;102200.27;;;31.99;20.18
78892;BME280;68368;51.728;5.248;2023-06-04T07:24:42;102200.88;;;32.17;20.65
78892;BME280;68368;51.728;5.248;2023-06-04T07:26:45;102200.46;;;32.43;20.48
78892;BME280;68368;51.728;5.248;2023-06-04T07:28:49;102200.03;;;32.50;19.86
78892;BME280;68368;51.728;5.248;2023-06-04T07:30:52;102206.90;;;32.56;19.87
78892;BME280;68368;51.728;5.248;2023-06-04T07:32:55;102207.17;;;32.41;20.13
78892;BME280;68368;51.728;5.248;2023-06-04T07:34:59;102205.29;;;32.23;19.43
78892;BME280;68368;51.728;5.248;2023-06-04T07:37:03;102203.39;;;32.15;20.25
78892;BME280;68368;51.728;5.248;2023-06-04T07:39:07;102193.77;;;32.18;19.85
78892;BME280;68368;51.728;5.248;2023-06-04T07:41:10;102196.97;;;32.26;20.04
78892;BME280;68368;51.728;5.248;2023-06-04T07:43:14;102196.34;;;32.39;20.35
78892;BME280;68368;51.728;5.248;2023-06-04T07:45:17;102196.46;;;32.47;19.58
78892;BME280;68368;51.728;5.248;2023-06-04T07:47:21;102198.86;;;32.35;20.28
78892;BME280;68368;51.728;5.248;2023-06-04T07:49:25;102187.19;;;32.36;20.35
78892;BME280;68368;51.728;5.248;2023-06-04T07:51:28;102197.64;;;32.46;20.11
78892;BME280;68368;51.728;5.248;2023-06-04T07:53:35;102198.20;;;32.41;19.66
78892;BME280;68368;51.728;5.248;2023-06-04T07:55:46;102203.58;;;32.03;19.58
78892;BME280;68368;51.728;5.248;2023-06-04T07:57:49;102207.22;;;31.71;20.00
78892;BME280;68368;51.728;5.248;2023-06-04T07:59:52;102209.64;;;31.47;20.39
78892;BME280;68368;51.728;5.248;2023-06-04T08:01:57;102206.55;;;31.24;20.69
78892;BME280;68368;51.728;5.248;2023-06-04T08:04:00;102205.61;;;30.95;21.05
78892;BME280;68368;51.728;5.248;2023-06-04T08:06:03;102206.55;;;30.90;21.24
78892;BME280;68368;51.728;5.248;2023-06-04T08:08:06;102208.47;;;30.89;21.50
78892;BME280;68368;51.728;5.248;2023-06-04T08:10:11;102207.63;;;30.88;21.40
78892;BME280;68368;51.728;5.248;2023-06-04T08:12:14;102211.89;;;30.77;21.57
78892;BME280;68368;51.728;5.248;2023-06-04T08:14:17;102206.54;;;30.73;21.74
78892;BME280;68368;51.728;5.248;2023-06-04T08:16:20;102205.08;;;30.81;22.16
78892;BME280;68368;51.728;5.248;2023-06-04T08:18:24;102206.13;;;30.76;22.00
78892;BME280;68368;51.728;5.248;2023-06-04T08:20:28;102204.45;;;30.69;21.91
78892;BME280;68368;51.728;5.248;2023-06-04T08:22:31;102207.92;;;30.69;22.06
78892;BME280;68368;51.728;5.248;2023-06-04T08:24:34;102207.66;;;30.83;22.06
78892;BME280;68368;51.728;5.248;2023-06-04T08:26:37;102210.81;;;31.04;21.99
78892;BME280;68368;51.728;5.248;2023-06-04T08:28:41;102216.41;;;31.10;21.26
78892;BME280;68368;51.728;5.248;2023-06-04T08:30:44;102217.91;;;30.98;21.20
78892;BME280;68368;51.728;5.248;2023-06-04T08:32:48;102218.98;;;30.98;21.39
78892;BME280;68368;51.728;5.248;2023-06-04T08:34:51;102214.47;;;30.98;21.34
78892;BME280;68368;51.728;5.248;2023-06-04T08:36:56;102215.91;;;30.88;20.99
78892;BME280;68368;51.728;5.248;2023-06-04T08:39:00;102217.42;;;30.67;21.35
78892;BME280;68368;51.728;5.248;2023-06-04T08:41:13;102216.20;;;30.64;21.65
78892;BME280;68368;51.728;5.248;2023-06-04T08:43:18;102217.70;;;30.78;21.32
78892;BME280;68368;51.728;5.248;2023-06-04T08:45:21;102215.81;;;30.74;20.80
78892;BME280;68368;51.728;5.248;2023-06-04T08:47:26;102219.88;;;30.53;20.99
78892;BME280;68368;51.728;5.248;2023-06-04T08:49:35;102215.36;;;30.35;21.07
78892;BME280;68368;51.728;5.248;2023-06-04T08:51:39;102210.46;;;30.37;21.58
78892;BME280;68368;51.728;5.248;2023-06-04T08:53:43;102216.11;;;30.42;21.17
78892;BME280;68368;51.728;5.248;2023-06-04T08:55:47;102213.35;;;30.35;21.08
78892;BME280;68368;51.728;5.248;2023-06-04T08:57:54;102216.68;;;30.08;21.01
78892;BME280;68368;51.728;5.248;2023-06-04T09:00:08;102221.89;;;29.89;21.34
78892;BME280;68368;51.728;5.248;2023-06-04T09:02:12;102220.06;;;29.99;21.90
78892;BME280;68368;51.728;5.248;2023-06-04T09:04:15;102218.69;;;30.16;21.97
78892;BME280;68368;51.728;5.248;2023-06-04T09:06:19;102222.34;;;30.21;20.88
78892;BME280;68368;51.728;5.248;2023-06-04T09:08:22;102221.59;;;30.22;20.60
78892;BME280;68368;51.728;5.248;2023-06-04T09:10:27;102218.42;;;30.20;20.33
78892;BME280;68368;51.728;5.248;2023-06-04T09:12:33;102220.45;;;30.04;20.40
78892;BME280;68368;51.728;5.248;2023-06-04T09:14:39;102222.84;;;29.88;20.67
78892;BME280;68368;51.728;5.248;2023-06-04T09:16:47;102223.15;;;29.78;20.67
78892;BME280;68368;51.728;5.248;2023-06-04T09:18:51;102226.25;;;29.66;20.80
78892;BME280;68368;51.728;5.248;2023-06-04T09:21:03;102228.17;;;29.50;21.14
78892;BME280;68368;51.728;5.248;2023-06-04T09:23:15;102223.28;;;29.44;21.36
78892;BME280;68368;51.728;5.248;2023-06-04T09:25:23;102226.67;;;29.59;21.42
78892;BME280;68368;51.728;5.248;2023-06-04T09:27:27;102228.55;;;29.75;21.21
78892;BME280;68368;51.728;5.248;2023-06-04T09:29:39;102221.68;;;29.79;21.25
78892;BME280;68368;51.728;5.248;2023-06-04T09:31:45;102228.48;;;29.81;21.02
78892;BME280;68368;51.728;5.248;2023-06-04T09:33:50;102224.81;;;29.84;20.47
78892;BME280;68368;51.728;5.248;2023-06-04T09:35:57;102221.50;;;29.84;20.47
78892;BME280;68368;51.728;5.248;2023-06-04T09:38:04;102223.04;;;29.75;20.06
78892;BME280;68368;51.728;5.248;2023-06-04T09:40:09;102219.10;;;29.66;19.47
78892;BME280;68368;51.728;5.248;2023-06-04T09:42:13;102218.72;;;29.71;19.40
78892;BME280;68368;51.728;5.248;2023-06-04T09:44:16;102223.45;;;29.72;17.94
78892;BME280;68368;51.728;5.248;2023-06-04T09:46:19;102220.52;;;29.58;18.46
78892;BME280;68368;51.728;5.248;2023-06-04T09:48:26;102217.62;;;29.44;18.52
78892;BME280;68368;51.728;5.248;2023-06-04T09:50:31;102222.11;;;29.43;18.60
78892;BME280;68368;51.728;5.248;2023-06-04T09:52:35;102215.62;;;29.41;18.65
78892;BME280;68368;51.728;5.248;2023-06-04T09:54:39;102214.84;;;29.45;18.95
78892;BME280;68368;51.728;5.248;2023-06-04T09:56:43;102208.68;;;29.52;19.68
78892;BME280;68368;51.728;5.248;2023-06-04T09:58:47;102216.86;;;29.69;19.36
78892;BME280;68368;51.728;5.248;2023-06-04T10:00:52;102213.45;;;29.68;18.42
78892;BME280;68368;51.728;5.248;2023-06-04T10:02:58;102210.54;;;29.59;18.37
78892;BME280;68368;51.728;5.248;2023-06-04T10:05:05;102213.64;;;29.66;18.75
78892;BME280;68368;51.728;5.248;2023-06-04T10:07:11;102213.21;;;29.55;18.16
78892;BME280;68368;51.728;5.248;2023-06-04T10:09:14;102207.73;;;29.39;18.67
78892;BME280;68368;51.728;5.248;2023-06-04T10:11:21;102207.23;;;29.41;18.84
78892;BME280;68368;51.728;5.248;2023-06-04T10:13:28;102206.46;;;29.39;18.43
78892;BME280;68368;51.728;5.248;2023-06-04T10:15:33;102211.70;;;29.21;18.15
78892;BME280;68368;51.728;5.248;2023-06-04T10:17:38;102205.70;;;29.06;18.49
78892;BME280;68368;51.728;5.248;2023-06-04T10:19:45;102207.35;;;29.14;18.63
78892;BME280;68368;51.728;5.248;2023-06-04T10:21:48;102209.81;;;29.30;18.71
78892;BME280;68368;51.728;5.248;2023-06-04T10:23:52;102209.48;;;29.21;17.87
78892;BME280;68368;51.728;5.248;2023-06-04T10:25:55;102212.66;;;29.15;18.60
78892;BME280;68368;51.728;5.248;2023-06-04T10:27:58;102207.55;;;29.09;17.81
78892;BME280;68368;51.728;5.248;2023-06-04T10:30:03;102205.27;;;29.02;17.69
78892;BME280;68368;51.728;5.248;2023-06-04T10:32:07;102205.73;;;28.97;18.09
78892;BME280;68368;51.728;5.248;2023-06-04T10:34:11;102211.98;;;28.91;18.01
78892;BME280;68368;51.728;5.248;2023-06-04T10:36:21;102209.21;;;28.83;18.07
78892;BME280;68368;51.728;5.248;2023-06-04T10:38:25;102208.29;;;28.75;18.13
78892;BME280;68368;51.728;5.248;2023-06-04T10:40:33;102207.94;;;28.75;18.48
78892;BME280;68368;51.728;5.248;2023-06-04T10:42:43;102210.52;;;28.78;18.28
78892;BME280;68368;51.728;5.248;2023-06-04T10:44:48;102206.85;;;28.81;17.83
78892;BME280;68368;51.728;5.248;2023-06-04T10:46:51;102205.61;;;28.80;17.76
78892;BME280;68368;51.728;5.248;2023-06-04T10:48:57;102203.52;;;28.75;17.57
78892;BME280;68368;51.728;5.248;2023-06-04T10:51:00;102198.63;;;28.78;18.58
78892;BME280;68368;51.728;5.248;2023-06-04T10:53:04;102203.63;;;28.90;18.92